Time;durP1;ratioP1;P1;durP2;ratioP2;P2;SDS_P1;SDS_P2;PMS_P1;PMS_P2;Temp;Humidity;BMP_temperature;BMP_pressure;BME280_temperature;BME280_humidity;BME280_pressure;Samples;Min_cycle;Max_cycle;Signal;HPM_P1;HPM_P2
2024/03/21 00:00:21;;;;;;;59.43;36.50;;;11.50;99.30;;;;;;5071563;28;20248;-59
2024/03/21 00:02:47;;;;;;;58.03;35.50;;;11.40;99.30;;;;;;5071566;28;20204;-59
2024/03/21 00:05:14;;;;;;;57.13;36.27;;;11.40;99.30;;;;;;5071898;28;20646;-59
2024/03/21 00:07:45;;;;;;;55.33;37.40;;;11.40;99.30;;;;;;5070500;28;20204;-59
2024/03/21 00:10:16;;;;;;;67.30;41.17;;;11.30;99.20;;;;;;5069519;28;20190;-59
2024/03/21 00:12:42;;;;;;;59.77;36.37;;;11.30;99.20;;;;;;5074458;28;20193;-59
2024/03/21 00:15:09;;;;;;;59.57;35.40;;;11.30;99.20;;;;;;5071010;28;20208;-59
2024/03/21 00:17:36;;;;;;;54.13;33.67;;;11.30;99.30;;;;;;5072477;28;20701;-59
2024/03/21 00:20:05;;;;;;;58.80;38.30;;;11.30;99.30;;;;;;5071674;28;20678;-59
2024/03/21 00:22:31;;;;;;;56.70;35.27;;;11.30;99.30;;;;;;5073646;28;20208;-59
2024/03/21 00:24:57;;;;;;;64.80;38.67;;;11.20;99.20;;;;;;5088473;28;20210;-59
2024/03/21 00:27:23;;;;;;;69.33;42.57;;;11.20;99.30;;;;;;5072885;28;20218;-59
2024/03/21 00:29:49;;;;;;;78.03;45.40;;;11.20;99.30;;;;;;5072278;28;20213;-59
2024/03/21 00:32:16;;;;;;;73.30;43.23;;;11.20;99.30;;;;;;5071804;28;20222;-59
2024/03/21 00:34:42;;;;;;;73.77;42.03;;;11.20;99.40;;;;;;5069472;28;20225;-59
2024/03/21 00:37:08;;;;;;;72.80;43.37;;;11.20;99.40;;;;;;5071663;28;20218;-59
2024/03/21 00:39:34;;;;;;;66.70;43.30;;;11.10;99.30;;;;;;5070871;28;20201;-59
2024/03/21 00:42:00;;;;;;;65.63;39.43;;;11.10;99.20;;;;;;5072742;28;20516;-59
2024/03/21 00:44:27;;;;;;;70.83;41.50;;;11.10;99.10;;;;;;5072747;28;20216;-59
2024/03/21 00:46:53;;;;;;;72.63;42.20;;;11.00;99.10;;;;;;5073163;28;20250;-59
2024/03/21 00:49:19;;;;;;;78.57;46.70;;;11.00;99.20;;;;;;5072913;28;20194;-59
2024/03/21 00:51:45;;;;;;;73.53;41.93;;;11.00;99.20;;;;;;5079524;28;20213;-59
2024/03/21 00:54:12;;;;;;;76.23;45.30;;;10.90;99.20;;;;;;5073071;28;20211;-59
2024/03/21 00:56:38;;;;;;;81.73;47.43;;;10.90;99.30;;;;;;5071199;28;20207;-59
2024/03/21 00:59:06;;;;;;;79.83;44.07;;;10.90;99.30;;;;;;5070811;28;20588;-59
2024/03/21 01:01:32;;;;;;;79.03;46.27;;;10.90;99.40;;;;;;5073301;28;20237;-59
2024/03/21 01:03:59;;;;;;;84.63;48.90;;;10.80;99.40;;;;;;5074427;28;20220;-60
2024/03/21 01:06:25;;;;;;;78.83;45.40;;;10.90;99.40;;;;;;5071637;28;20213;-60
2024/03/21 01:08:51;;;;;;;85.40;48.27;;;10.80;99.50;;;;;;5072041;28;20188;-59
2024/03/21 01:11:17;;;;;;;83.97;49.20;;;10.80;99.50;;;;;;5068285;28;20820;-59
2024/03/21 01:13:44;;;;;;;80.27;47.53;;;10.80;99.50;;;;;;5070636;28;20229;-59
2024/03/21 01:16:11;;;;;;;88.53;49.37;;;10.80;99.60;;;;;;5088168;28;20194;-59
2024/03/21 01:18:38;;;;;;;88.70;50.57;;;10.90;99.70;;;;;;5070525;28;20198;-59
2024/03/21 01:21:05;;;;;;;82.33;49.73;;;10.80;99.70;;;;;;5071863;28;20253;-59
2024/03/21 01:23:32;;;;;;;84.50;48.53;;;10.80;99.60;;;;;;5061601;28;20206;-59
2024/03/21 01:25:59;;;;;;;90.73;48.80;;;10.80;99.60;;;;;;5069367;28;20193;-59
2024/03/21 01:28:25;;;;;;;82.33;45.73;;;10.80;99.60;;;;;;5070040;28;20192;-59
2024/03/21 01:30:51;;;;;;;80.40;43.43;;;10.80;99.50;;;;;;5067535;28;20210;-59
2024/03/21 01:33:18;;;;;;;81.73;46.30;;;10.80;99.40;;;;;;5070794;28;20545;-59
2024/03/21 01:35:44;;;;;;;76.87;46.07;;;10.70;99.50;;;;;;5070736;28;20219;-59
2024/03/21 01:38:13;;;;;;;84.73;45.97;;;10.70;99.60;;;;;;5072170;28;20209;-59
2024/03/21 01:40:39;;;;;;;74.37;46.00;;;10.70;99.60;;;;;;5077351;28;20200;-59
2024/03/21 01:43:21;;;;;;;71.67;43.93;;;10.70;99.60;;;;;;5070801;28;20209;-59
2024/03/21 01:46:17;;;;;;;80.87;44.47;;;10.70;99.70;;;;;;5071044;28;20213;-59
2024/03/21 01:48:45;;;;;;;75.90;44.33;;;10.70;99.70;;;;;;5087677;28;20209;-59
2024/03/21 01:51:14;;;;;;;71.10;43.17;;;10.70;99.70;;;;;;5066934;28;20719;-59
2024/03/21 01:53:43;;;;;;;70.53;42.33;;;10.60;99.70;;;;;;5069477;28;20204;-59
2024/03/21 01:56:10;;;;;;;87.73;46.67;;;10.60;99.70;;;;;;5069101;28;20219;-59
2024/03/21 01:58:36;;;;;;;82.40;45.73;;;10.60;99.70;;;;;;5069950;28;20608;-60
2024/03/21 02:01:23;;;;;;;82.80;47.03;;;10.60;99.70;;;;;;5069803;28;20292;-59
2024/03/21 02:03:52;;;;;;;75.43;43.47;;;10.70;99.90;;;;;;5051497;28;20201;-59
2024/03/21 02:06:22;;;;;;;78.70;45.13;;;10.60;99.90;;;;;;5065246;28;20254;-59
2024/03/21 02:08:49;;;;;;;68.73;40.73;;;10.70;99.90;;;;;;5069209;28;20266;-59
2024/03/21 02:11:15;;;;;;;69.73;42.80;;;10.70;99.90;;;;;;5066508;28;20207;-59
2024/03/21 02:13:42;;;;;;;72.37;40.70;;;10.70;99.90;;;;;;5065398;28;20199;-59
2024/03/21 02:16:08;;;;;;;71.97;43.63;;;10.70;99.90;;;;;;5071769;28;20197;-59
2024/03/21 02:18:34;;;;;;;83.93;44.80;;;10.70;99.90;;;;;;5067494;28;20200;-59
2024/03/21 02:21:00;;;;;;;81.60;46.73;;;10.70;99.90;;;;;;5071378;28;20230;-59
2024/03/21 02:23:26;;;;;;;81.50;44.77;;;10.70;99.80;;;;;;5069581;28;20247;-59
2024/03/21 02:25:52;;;;;;;83.37;45.33;;;10.70;99.80;;;;;;5070624;28;20224;-59
2024/03/21 02:28:19;;;;;;;69.57;40.60;;;10.60;99.70;;;;;;5070705;28;20196;-59
2024/03/21 02:30:48;;;;;;;79.63;43.93;;;10.60;99.80;;;;;;5068312;28;20201;-59
2024/03/21 02:33:14;;;;;;;66.57;39.97;;;10.60;99.80;;;;;;5068645;28;20566;-59
2024/03/21 02:35:40;;;;;;;71.57;41.77;;;10.50;99.70;;;;;;5065678;28;20215;-59
2024/03/21 02:38:06;;;;;;;72.30;40.60;;;10.50;99.70;;;;;;5068710;28;20212;-60
2024/03/21 02:40:32;;;;;;;66.73;40.33;;;10.50;99.80;;;;;;5069678;28;20205;-59
2024/03/21 02:42:58;;;;;;;71.23;44.20;;;10.40;99.80;;;;;;5069580;28;20219;-60
2024/03/21 02:45:24;;;;;;;68.10;40.10;;;10.40;99.80;;;;;;5069004;28;20531;-59
2024/03/21 02:47:50;;;;;;;67.77;40.93;;;10.40;99.80;;;;;;5071145;28;20203;-59
2024/03/21 02:50:16;;;;;;;66.97;39.67;;;10.30;99.70;;;;;;5068253;28;20521;-59
2024/03/21 02:52:42;;;;;;;65.87;40.10;;;10.30;99.80;;;;;;5065903;28;20227;-60
2024/03/21 02:55:08;;;;;;;63.07;38.03;;;10.30;99.80;;;;;;5061117;28;20262;-59
2024/03/21 02:57:34;;;;;;;76.27;43.30;;;10.20;99.80;;;;;;5070722;28;20193;-59
2024/03/21 03:00:01;;;;;;;73.93;40.60;;;10.20;99.90;;;;;;5062697;28;20248;-59
2024/03/21 03:02:28;;;;;;;71.90;41.43;;;10.30;99.90;;;;;;5070429;28;20197;-60
2024/03/21 03:04:54;;;;;;;71.60;40.23;;;10.20;99.90;;;;;;5073598;28;20225;-59
2024/03/21 03:07:20;;;;;;;73.93;41.30;;;10.20;99.90;;;;;;5066323;28;20249;-60
2024/03/21 03:09:46;;;;;;;61.20;37.17;;;10.30;99.90;;;;;;5073351;28;20635;-59
2024/03/21 03:12:12;;;;;;;67.23;40.80;;;10.20;99.90;;;;;;5069016;28;20211;-59
2024/03/21 03:14:38;;;;;;;68.23;38.70;;;10.20;99.90;;;;;;5073708;28;20203;-60
2024/03/21 03:17:04;;;;;;;73.70;38.63;;;10.30;99.90;;;;;;5073582;28;20202;-59
2024/03/21 03:19:30;;;;;;;60.97;38.03;;;10.30;99.90;;;;;;5072426;28;20196;-59
2024/03/21 03:21:56;;;;;;;67.97;39.30;;;10.20;99.90;;;;;;5071258;28;20266;-59
2024/03/21 03:24:23;;;;;;;63.70;37.47;;;10.20;99.90;;;;;;5069645;28;20229;-60
2024/03/21 03:26:49;;;;;;;67.20;38.53;;;10.20;99.90;;;;;;5074431;28;20204;-59
2024/03/21 03:29:15;;;;;;;64.60;37.40;;;10.20;99.90;;;;;;5073868;28;20207;-59
2024/03/21 03:31:41;;;;;;;76.57;40.47;;;10.20;99.90;;;;;;5072994;28;20250;-60
2024/03/21 03:36:52;;;;;;;68.97;38.53;;;10.20;99.90;;;;;;5051171;28;20237;-59
2024/03/21 03:39:18;;;;;;;69.93;38.40;;;10.20;99.90;;;;;;5073089;28;20214;-59
2024/03/21 03:41:44;;;;;;;71.20;39.70;;;10.10;99.90;;;;;;5071510;28;20287;-59
2024/03/21 03:44:10;;;;;;;67.63;38.83;;;10.10;99.90;;;;;;5070647;28;20579;-60
2024/03/21 03:46:37;;;;;;;68.20;38.93;;;10.10;99.90;;;;;;5073429;28;20187;-59
2024/03/21 03:49:03;;;;;;;68.60;39.17;;;10.10;99.90;;;;;;5072472;28;20211;-60
2024/03/21 03:51:29;;;;;;;64.93;37.83;;;10.10;99.90;;;;;;5073848;28;20260;-59
2024/03/21 03:53:55;;;;;;;65.37;36.40;;;10.10;99.90;;;;;;5073552;28;20204;-59
2024/03/21 03:56:21;;;;;;;58.23;33.73;;;10.10;99.90;;;;;;5073249;28;20195;-59
2024/03/21 03:58:47;;;;;;;58.17;35.27;;;10.10;99.90;;;;;;5072227;28;20618;-59
2024/03/21 04:01:13;;;;;;;62.03;37.07;;;10.00;99.90;;;;;;5070320;28;20663;-60
2024/03/21 04:03:39;;;;;;;60.67;33.87;;;10.00;99.90;;;;;;5069929;28;20209;-60
2024/03/21 04:06:05;;;;;;;62.17;35.53;;;10.00;99.90;;;;;;5071809;28;20217;-60
2024/03/21 04:08:31;;;;;;;68.20;37.60;;;9.90;99.90;;;;;;5070127;28;20500;-59
2024/03/21 04:10:58;;;;;;;59.80;33.40;;;9.90;99.90;;;;;;5072485;28;20235;-59
2024/03/21 04:13:25;;;;;;;59.57;33.93;;;9.90;99.90;;;;;;5081997;28;20211;-59
2024/03/21 04:15:55;;;;;;;63.70;37.80;;;9.80;99.90;;;;;;5088552;28;20566;-59
2024/03/21 04:18:22;;;;;;;60.70;36.67;;;9.80;99.90;;;;;;5071901;28;20952;-59
2024/03/21 04:20:52;;;;;;;56.90;32.30;;;9.80;99.90;;;;;;5069120;28;20213;-59
2024/03/21 04:23:19;;;;;;;62.57;34.40;;;9.80;99.90;;;;;;5072011;28;20676;-60
2024/03/21 04:25:45;;;;;;;58.27;33.07;;;9.80;99.90;;;;;;5072446;28;20203;-60
2024/03/21 04:28:11;;;;;;;59.53;34.30;;;9.70;99.90;;;;;;5073081;28;20207;-59
2024/03/21 04:30:37;;;;;;;69.90;35.70;;;9.70;99.90;;;;;;5068773;28;20256;-60
2024/03/21 04:33:04;;;;;;;58.07;31.47;;;9.60;99.90;;;;;;5070195;28;20201;-59
2024/03/21 04:35:30;;;;;;;62.90;34.37;;;9.60;99.90;;;;;;5073354;28;20275;-59
2024/03/21 04:37:56;;;;;;;66.77;35.80;;;9.60;99.90;;;;;;5070804;28;20208;-59
2024/03/21 04:40:23;;;;;;;63.77;34.53;;;9.60;99.90;;;;;;5074281;28;20211;-59
2024/03/21 04:42:51;;;;;;;60.80;32.90;;;9.60;99.90;;;;;;5069614;28;20278;-59
2024/03/21 04:45:20;;;;;;;65.10;34.20;;;9.60;99.90;;;;;;5087233;28;20216;-60
2024/03/21 04:47:46;;;;;;;59.37;35.10;;;9.60;99.90;;;;;;5072075;28;20194;-59
2024/03/21 04:50:13;;;;;;;59.87;33.50;;;9.60;99.90;;;;;;5075152;28;20215;-59
2024/03/21 04:52:39;;;;;;;61.03;34.53;;;9.60;99.90;;;;;;5072947;28;20193;-59
2024/03/21 04:55:06;;;;;;;60.63;33.67;;;9.60;99.90;;;;;;5071548;28;20531;-60
2024/03/21 04:57:32;;;;;;;65.00;34.30;;;9.60;99.90;;;;;;5073445;28;20671;-59
2024/03/21 04:59:58;;;;;;;65.13;33.93;;;9.60;99.90;;;;;;5085947;28;20243;-59
2024/03/21 05:02:24;;;;;;;60.50;33.27;;;9.60;99.90;;;;;;5072074;28;20261;-60
2024/03/21 05:04:51;;;;;;;63.33;32.83;;;9.70;99.90;;;;;;5071828;28;20226;-60
2024/03/21 05:07:17;;;;;;;56.83;33.03;;;9.70;99.90;;;;;;5073023;28;20225;-59
2024/03/21 05:09:43;;;;;;;57.83;31.90;;;9.70;99.90;;;;;;5070861;28;20678;-59
2024/03/21 05:12:09;;;;;;;53.40;32.17;;;9.70;99.90;;;;;;5071423;28;20585;-59
2024/03/21 05:14:35;;;;;;;51.07;27.30;;;9.70;99.90;;;;;;5068551;28;20707;-59
2024/03/21 05:17:03;;;;;;;56.43;31.00;;;9.70;99.90;;;;;;5072549;28;20204;-60
2024/03/21 05:19:29;;;;;;;57.13;32.30;;;9.70;99.90;;;;;;5069955;28;20199;-60
2024/03/21 05:21:56;;;;;;;56.93;32.33;;;9.70;99.90;;;;;;5071982;28;20200;-59
2024/03/21 05:24:22;;;;;;;61.87;31.57;;;9.70;99.90;;;;;;5071122;28;20250;-60
2024/03/21 05:26:48;;;;;;;55.57;29.70;;;9.70;99.90;;;;;;5069783;28;20198;-59
2024/03/21 05:29:14;;;;;;;53.03;30.37;;;9.60;99.90;;;;;;5070980;28;20194;-59
2024/03/21 05:31:40;;;;;;;52.13;30.83;;;9.60;99.90;;;;;;5070261;28;20196;-59
2024/03/21 05:34:08;;;;;;;62.13;29.67;;;9.60;99.90;;;;;;5072096;28;20207;-59
2024/03/21 05:36:35;;;;;;;58.47;29.87;;;9.60;99.90;;;;;;5070171;28;20211;-59
2024/03/21 05:39:02;;;;;;;57.90;31.03;;;9.60;99.90;;;;;;5071583;28;20203;-59
2024/03/21 05:41:29;;;;;;;56.43;30.67;;;9.60;99.90;;;;;;5069386;28;20207;-59
2024/03/21 05:43:56;;;;;;;50.70;29.67;;;9.60;99.90;;;;;;5071936;28;20764;-59
2024/03/21 05:46:26;;;;;;;52.07;29.50;;;9.60;99.90;;;;;;5068171;28;20658;-59
2024/03/21 05:48:56;;;;;;;56.57;29.93;;;9.70;99.90;;;;;;5050916;28;20226;-59
2024/03/21 05:51:22;;;;;;;54.60;28.30;;;9.80;99.90;;;;;;5070621;28;20214;-60
2024/03/21 05:53:48;;;;;;;50.47;28.90;;;9.80;99.90;;;;;;5072226;28;20224;-59
2024/03/21 05:56:18;;;;;;;54.93;31.07;;;9.90;99.90;;;;;;5070240;28;20210;-59
2024/03/21 05:58:44;;;;;;;53.83;30.60;;;10.00;99.90;;;;;;5071158;28;20238;-59
2024/03/21 06:03:44;;;;;;;48.43;28.90;;;10.20;99.90;;;;;;5071961;28;20226;-59
2024/03/21 06:06:11;;;;;;;53.43;29.37;;;10.30;99.90;;;;;;5087088;28;20220;-60
2024/03/21 06:08:38;;;;;;;47.53;29.20;;;10.40;99.90;;;;;;5071051;28;20199;-59
2024/03/21 06:11:04;;;;;;;54.13;28.77;;;10.50;99.90;;;;;;5068398;28;20297;-59
2024/03/21 06:13:30;;;;;;;44.77;26.03;;;10.60;99.90;;;;;;5069929;28;20200;-59
2024/03/21 06:15:56;;;;;;;44.13;25.53;;;10.60;99.90;;;;;;5067340;28;20200;-59
2024/03/21 06:18:23;;;;;;;46.77;24.80;;;10.70;99.90;;;;;;5071625;28;20262;-59
2024/03/21 06:20:49;;;;;;;50.80;28.87;;;10.90;99.70;;;;;;5069573;28;20213;-59
2024/03/21 06:23:15;;;;;;;46.33;27.83;;;11.10;99.40;;;;;;5071669;28;20273;-60
2024/03/21 06:25:44;;;;;;;48.57;29.00;;;11.20;99.20;;;;;;5069738;28;20603;-60
2024/03/21 06:28:10;;;;;;;49.03;28.07;;;11.30;99.20;;;;;;5084346;28;20631;-60
2024/03/21 06:30:37;;;;;;;49.33;27.87;;;11.50;98.90;;;;;;5069372;28;20246;-60
2024/03/21 06:33:04;;;;;;;46.70;26.43;;;11.80;98.80;;;;;;5071008;28;20212;-60
2024/03/21 06:35:30;;;;;;;48.03;29.40;;;12.00;98.50;;;;;;5070152;28;20210;-60
2024/03/21 06:37:57;;;;;;;44.67;27.83;;;12.40;98.10;;;;;;5069254;28;20212;-60
2024/03/21 06:40:25;;;;;;;44.17;26.80;;;12.70;97.60;;;;;;5071214;28;20520;-60
2024/03/21 06:42:52;;;;;;;43.87;27.20;;;13.10;97.10;;;;;;5071027;28;20202;-60
2024/03/21 06:45:18;;;;;;;44.80;26.57;;;13.40;96.60;;;;;;5068866;28;20216;-60
2024/03/21 06:47:46;;;;;;;42.70;24.97;;;13.60;96.20;;;;;;5069217;28;20213;-60
2024/03/21 06:50:17;;;;;;;44.93;25.83;;;13.80;95.70;;;;;;5067685;28;20211;-60
2024/03/21 06:52:47;;;;;;;37.50;24.33;;;14.00;95.30;;;;;;5070719;28;20193;-60
2024/03/21 06:55:14;;;;;;;43.47;26.70;;;14.10;95.00;;;;;;5070935;28;20205;-60
2024/03/21 06:57:50;;;;;;;40.93;25.10;;;14.10;94.90;;;;;;5068754;28;20895;-60
2024/03/21 07:00:16;;;;;;;38.77;25.57;;;14.10;95.00;;;;;;5064697;28;20259;-59
2024/03/21 07:02:43;;;;;;;41.40;25.53;;;14.10;95.10;;;;;;5068906;28;20208;-60
2024/03/21 07:05:10;;;;;;;46.10;26.23;;;14.00;95.20;;;;;;5066711;28;20222;-60
2024/03/21 07:07:36;;;;;;;42.77;27.57;;;14.00;95.30;;;;;;5068851;28;20191;-60
2024/03/21 07:10:03;;;;;;;42.43;26.30;;;13.90;95.50;;;;;;5071001;28;20500;-60
2024/03/21 07:12:30;;;;;;;42.33;25.00;;;13.80;95.70;;;;;;5069348;28;20209;-60
2024/03/21 07:14:56;;;;;;;37.53;24.77;;;13.90;95.90;;;;;;5068746;28;20685;-58
2024/03/21 07:17:22;;;;;;;36.17;23.90;;;13.80;95.60;;;;;;5067419;28;20228;-58
2024/03/21 07:19:48;;;;;;;37.97;24.77;;;13.80;95.40;;;;;;5069247;28;20213;-58
2024/03/21 07:22:15;;;;;;;40.07;23.53;;;13.80;95.40;;;;;;5070095;28;20209;-58
2024/03/21 07:24:41;;;;;;;39.43;23.93;;;13.80;95.50;;;;;;5066688;28;20225;-58
2024/03/21 07:27:08;;;;;;;34.27;23.13;;;13.80;95.60;;;;;;5067494;28;20198;-58
2024/03/21 07:29:34;;;;;;;37.63;23.20;;;13.90;95.70;;;;;;5067510;28;20786;-58
2024/03/21 07:32:05;;;;;;;32.63;22.53;;;13.90;95.60;;;;;;5067885;28;20198;-58
2024/03/21 07:34:32;;;;;;;33.00;23.03;;;14.00;95.70;;;;;;5052146;28;20209;-60
2024/03/21 07:36:58;;;;;;;38.13;21.30;;;14.10;95.70;;;;;;5070044;28;20671;-60
2024/03/21 07:39:25;;;;;;;36.53;23.03;;;14.20;95.70;;;;;;5068050;28;20220;-59
2024/03/21 07:41:52;;;;;;;33.63;23.30;;;14.40;95.70;;;;;;5067321;28;20692;-58
2024/03/21 07:44:18;;;;;;;34.43;22.07;;;14.50;95.60;;;;;;5069126;28;20748;-58
2024/03/21 07:46:45;;;;;;;31.50;23.17;;;14.60;95.50;;;;;;5068675;28;20206;-58
2024/03/21 07:49:11;;;;;;;29.13;22.23;;;14.80;95.40;;;;;;5071843;28;20228;-57
2024/03/21 07:51:38;;;;;;;33.70;22.13;;;14.90;95.20;;;;;;5074532;28;20198;-57
2024/03/21 07:54:04;;;;;;;31.33;22.83;;;15.10;95.00;;;;;;5073849;28;20205;-58
2024/03/21 07:56:31;;;;;;;33.30;22.57;;;15.30;94.80;;;;;;5073975;28;20202;-58
2024/03/21 07:58:57;;;;;;;36.17;23.53;;;15.40;94.50;;;;;;5069410;28;20803;-57
2024/03/21 08:01:25;;;;;;;36.87;25.13;;;15.60;94.30;;;;;;5070771;28;20226;-57
2024/03/21 08:03:52;;;;;;;36.40;22.77;;;15.80;94.00;;;;;;5070934;28;20198;-57
2024/03/21 08:06:18;;;;;;;32.73;22.73;;;15.90;93.50;;;;;;5073381;28;20723;-58
2024/03/21 08:08:44;;;;;;;34.57;23.83;;;16.00;93.40;;;;;;5069763;28;20623;-57
2024/03/21 08:11:11;;;;;;;36.77;24.67;;;16.10;93.00;;;;;;5066304;28;20214;-57
2024/03/21 08:13:37;;;;;;;37.97;24.47;;;16.20;93.00;;;;;;5071524;28;20195;-57
2024/03/21 08:16:04;;;;;;;38.50;26.57;;;16.30;93.20;;;;;;5071698;28;20215;-57
2024/03/21 08:18:30;;;;;;;34.17;24.43;;;16.50;93.20;;;;;;5069883;28;20210;-58
2024/03/21 08:20:57;;;;;;;38.93;25.17;;;16.70;93.00;;;;;;5073144;28;20196;-58
2024/03/21 08:23:23;;;;;;;35.90;24.27;;;16.90;92.60;;;;;;5071662;28;20222;-57
2024/03/21 08:25:49;;;;;;;33.73;25.70;;;17.00;92.00;;;;;;5069837;28;20228;-57
2024/03/21 08:28:15;;;;;;;38.90;25.37;;;17.20;91.80;;;;;;5070906;28;20494;-58
2024/03/21 08:30:46;;;;;;;37.13;24.37;;;17.20;91.50;;;;;;5069685;28;20213;-57
2024/03/21 08:33:14;;;;;;;37.70;25.63;;;17.30;91.20;;;;;;5072278;28;20189;-57
2024/03/21 08:35:41;;;;;;;37.30;25.87;;;17.30;91.10;;;;;;5073029;28;20208;-58
2024/03/21 08:38:08;;;;;;;44.83;27.33;;;17.30;91.40;;;;;;5070407;28;20201;-58
2024/03/21 08:40:34;;;;;;;49.13;26.93;;;17.50;91.60;;;;;;5072650;28;20200;-58
2024/03/21 08:43:00;;;;;;;37.17;26.63;;;17.70;91.50;;;;;;5070013;28;20208;-58
2024/03/21 08:45:26;;;;;;;34.20;25.90;;;17.80;91.40;;;;;;5075939;28;20222;-59
2024/03/21 08:47:53;;;;;;;37.27;26.27;;;18.00;90.90;;;;;;5071649;28;20635;-59
2024/03/21 08:50:20;;;;;;;35.40;25.33;;;18.20;90.80;;;;;;5064564;28;20205;-60
2024/03/21 08:52:46;;;;;;;38.03;27.33;;;18.30;90.70;;;;;;5069631;28;20653;-60
2024/03/21 08:55:14;;;;;;;36.00;26.40;;;18.50;90.60;;;;;;5069590;28;20224;-59
2024/03/21 08:57:41;;;;;;;35.47;26.00;;;18.60;90.40;;;;;;5070978;28;20222;-58
2024/03/21 09:00:07;;;;;;;40.57;26.13;;;18.70;90.40;;;;;;5070683;28;20238;-58
2024/03/21 09:02:33;;;;;;;35.07;26.53;;;18.90;90.30;;;;;;5068218;28;20212;-59
2024/03/21 09:04:59;;;;;;;35.37;26.07;;;19.10;89.20;;;;;;5070812;28;20216;-59
2024/03/21 09:07:26;;;;;;;36.93;26.13;;;19.20;88.30;;;;;;5070438;28;20194;-59
2024/03/21 09:09:52;;;;;;;33.23;24.97;;;19.20;88.80;;;;;;5069748;28;20201;-57
2024/03/21 09:12:18;;;;;;;40.67;27.73;;;19.40;88.40;;;;;;5070312;28;20239;-59
2024/03/21 09:14:44;;;;;;;34.80;26.03;;;19.50;88.10;;;;;;5070369;28;20221;-59
2024/03/21 09:17:10;;;;;;;35.23;26.67;;;19.60;87.70;;;;;;5070248;28;20223;-59
2024/03/21 09:19:36;;;;;;;32.97;25.30;;;19.70;87.60;;;;;;5072229;28;20209;-60
2024/03/21 09:22:03;;;;;;;37.63;25.87;;;19.80;87.40;;;;;;5071481;28;20673;-59
2024/03/21 09:24:30;;;;;;;33.60;24.50;;;19.90;86.90;;;;;;5067695;28;20226;-60
2024/03/21 09:26:57;;;;;;;31.77;23.67;;;20.00;85.80;;;;;;5071617;28;20190;-59
2024/03/21 09:29:26;;;;;;;31.97;23.67;;;20.10;85.10;;;;;;5070917;28;20205;-59
2024/03/21 09:31:53;;;;;;;36.33;25.73;;;20.10;84.90;;;;;;5068331;28;20216;-60
2024/03/21 09:34:19;;;;;;;29.73;23.83;;;20.10;84.30;;;;;;5071293;28;20655;-57
2024/03/21 09:36:48;;;;;;;32.17;24.10;;;20.10;85.60;;;;;;5070674;28;20194;-57
2024/03/21 09:39:15;;;;;;;32.87;24.33;;;20.20;84.90;;;;;;5069556;28;20193;-58
2024/03/21 09:41:42;;;;;;;34.97;25.40;;;20.30;83.90;;;;;;5071815;28;20214;-58
2024/03/21 09:44:14;;;;;;;28.13;22.13;;;20.40;83.90;;;;;;5069198;28;20517;-58
2024/03/21 09:46:42;;;;;;;32.13;22.40;;;20.40;83.10;;;;;;5071971;28;20190;-59
2024/03/21 09:49:12;;;;;;;29.17;22.13;;;20.60;82.70;;;;;;5072120;28;20189;-59
2024/03/21 09:51:40;;;;;;;31.87;21.93;;;20.70;80.90;;;;;;5067474;28;20245;-58
2024/03/21 09:54:15;;;;;;;32.03;22.63;;;20.70;80.10;;;;;;5068730;28;20190;-58
2024/03/21 09:56:42;;;;;;;34.03;23.60;;;20.70;78.80;;;;;;5069675;28;20700;-58
2024/03/21 09:59:15;;;;;;;31.90;23.67;;;20.60;79.30;;;;;;5070021;28;20198;-58
2024/03/21 10:01:41;;;;;;;30.40;22.77;;;20.70;80.80;;;;;;5071027;28;20239;-58
2024/03/21 10:04:07;;;;;;;30.97;22.83;;;20.80;81.40;;;;;;5071820;28;20545;-59
2024/03/21 10:06:44;;;;;;;35.60;25.13;;;20.90;81.90;;;;;;5069428;28;20206;-59
2024/03/21 10:09:10;;;;;;;30.83;23.20;;;21.10;80.20;;;;;;5070974;28;20212;-58
2024/03/21 10:11:36;;;;;;;30.83;22.67;;;21.10;79.30;;;;;;5070467;28;20202;-59
2024/03/21 10:14:02;;;;;;;32.77;24.50;;;21.20;80.00;;;;;;5067356;28;20198;-58
2024/03/21 10:16:29;;;;;;;35.13;25.17;;;21.30;79.90;;;;;;5069865;28;20210;-59
2024/03/21 10:18:55;;;;;;;32.93;26.57;;;21.50;79.50;;;;;;5070411;28;20213;-58
2024/03/21 10:21:22;;;;;;;31.13;23.87;;;21.60;77.70;;;;;;5070345;28;20212;-59
2024/03/21 10:23:49;;;;;;;30.50;23.10;;;21.60;77.30;;;;;;5069142;28;20635;-59
2024/03/21 10:26:17;;;;;;;35.43;25.20;;;21.70;77.30;;;;;;5068741;28;20556;-60
2024/03/21 10:28:44;;;;;;;35.47;25.80;;;21.80;77.00;;;;;;5068851;28;20220;-59
2024/03/21 10:31:15;;;;;;;36.80;27.07;;;21.90;75.30;;;;;;5068058;28;20243;-58
2024/03/21 10:33:44;;;;;;;37.17;27.53;;;21.90;75.10;;;;;;5079342;28;20204;-59
2024/03/21 10:36:14;;;;;;;32.27;25.53;;;21.90;75.40;;;;;;5071180;28;20254;-59
2024/03/21 10:38:41;;;;;;;36.73;26.93;;;21.90;76.10;;;;;;5067727;28;20204;-59
2024/03/21 10:41:25;;;;;;;36.10;27.13;;;22.00;76.00;;;;;;5070846;28;20251;-58
2024/03/21 10:43:58;;;;;;;36.43;28.10;;;22.10;75.20;;;;;;5069123;28;20204;-59
2024/03/21 10:46:27;;;;;;;39.97;28.97;;;22.20;74.50;;;;;;5069341;28;20722;-58
2024/03/21 10:48:53;;;;;;;37.13;27.67;;;22.30;73.50;;;;;;5069149;28;20198;-58
2024/03/21 10:51:22;;;;;;;36.27;28.53;;;22.40;72.80;;;;;;5067582;28;20190;-59
2024/03/21 10:54:16;;;;;;;38.30;29.70;;;22.50;72.40;;;;;;5062158;28;20228;-58
2024/03/21 10:56:42;;;;;;;37.60;29.00;;;22.60;70.40;;;;;;5063247;28;20198;-58
2024/03/21 10:59:15;;;;;;;36.77;28.57;;;22.40;70.10;;;;;;5071289;28;20257;-58
2024/03/21 11:01:44;;;;;;;40.47;30.00;;;22.40;69.80;;;;;;5069400;28;20560;-58
2024/03/21 11:04:11;;;;;;;39.23;28.60;;;22.20;70.40;;;;;;5069082;28;20198;-58
2024/03/21 11:06:42;;;;;;;41.67;28.93;;;22.20;72.30;;;;;;5068138;28;20825;-58
2024/03/21 11:09:12;;;;;;;37.57;29.20;;;22.10;72.10;;;;;;5070553;28;20186;-58
2024/03/21 11:11:39;;;;;;;36.27;26.40;;;22.10;71.40;;;;;;5068460;28;20190;-58
2024/03/21 11:14:09;;;;;;;39.77;28.20;;;22.10;71.30;;;;;;5070404;28;20229;-58
2024/03/21 11:16:40;;;;;;;38.67;28.93;;;22.10;71.70;;;;;;5067304;28;20212;-58
2024/03/21 11:19:09;;;;;;;38.27;28.83;;;22.00;71.40;;;;;;5068391;28;20194;-58
2024/03/21 11:21:35;;;;;;;36.93;26.57;;;21.90;72.10;;;;;;5070824;28;20210;-59
2024/03/21 11:24:04;;;;;;;37.70;28.03;;;21.70;70.60;;;;;;5071895;28;20204;-58
2024/03/21 11:26:30;;;;;;;34.67;26.03;;;21.60;71.30;;;;;;5072151;28;20233;-58
2024/03/21 11:28:57;;;;;;;35.20;26.73;;;21.60;71.90;;;;;;5070188;28;20197;-58
2024/03/21 11:31:31;;;;;;;39.13;25.63;;;21.80;72.90;;;;;;5071785;28;21494;-58
2024/03/21 11:33:58;;;;;;;40.07;29.53;;;22.00;72.90;;;;;;5080748;28;20204;-58
2024/03/21 11:36:25;;;;;;;35.37;26.00;;;22.20;70.80;;;;;;5077708;28;20206;-58
2024/03/21 11:38:51;;;;;;;36.07;24.93;;;22.40;70.90;;;;;;5074529;28;20221;-59
2024/03/21 11:41:19;;;;;;;35.63;24.47;;;22.50;71.30;;;;;;5050158;28;20208;-58
2024/03/21 11:43:53;;;;;;;32.87;25.10;;;22.60;69.60;;;;;;5072974;28;20198;-58
2024/03/21 11:46:21;;;;;;;32.13;23.67;;;22.60;68.20;;;;;;5071451;28;20206;-58
2024/03/21 11:49:09;;;;;;;29.60;23.90;;;22.70;68.00;;;;;;5071852;28;20274;-58
2024/03/21 11:51:37;;;;;;;32.33;24.90;;;22.70;68.10;;;;;;5071586;28;20544;-58
2024/03/21 11:54:05;;;;;;;34.73;25.57;;;22.80;68.00;;;;;;5073880;28;20202;-59
2024/03/21 11:56:32;;;;;;;38.10;26.33;;;22.90;67.80;;;;;;5073002;28;20521;-59
2024/03/21 11:58:58;;;;;;;33.03;25.57;;;22.90;67.20;;;;;;5072974;28;20639;-58
2024/03/21 12:01:24;;;;;;;35.00;25.90;;;22.90;67.60;;;;;;5071193;28;20238;-58
2024/03/21 12:03:51;;;;;;;30.63;24.80;;;22.90;67.10;;;;;;5071680;28;20236;-59
2024/03/21 12:06:17;;;;;;;30.90;21.70;;;22.90;66.80;;;;;;5071893;28;20595;-59
2024/03/21 12:08:43;;;;;;;29.93;24.37;;;22.90;67.10;;;;;;5071909;28;20194;-58
2024/03/21 12:11:17;;;;;;;30.93;23.70;;;22.90;68.00;;;;;;5076100;28;20198;-59
2024/03/21 12:13:44;;;;;;;30.73;22.90;;;22.90;67.10;;;;;;5073159;28;20209;-58
2024/03/21 12:16:12;;;;;;;29.87;23.07;;;22.80;66.50;;;;;;5070562;28;20560;-58
2024/03/21 12:18:39;;;;;;;29.60;23.70;;;22.70;67.30;;;;;;5073530;28;20209;-58
2024/03/21 12:21:05;;;;;;;31.73;24.93;;;22.70;67.80;;;;;;5072962;28;20201;-59
2024/03/21 12:23:31;;;;;;;31.73;24.37;;;22.60;67.60;;;;;;5072903;28;20202;-59
2024/03/21 12:25:57;;;;;;;28.67;22.00;;;22.60;67.60;;;;;;5068669;28;20686;-58
2024/03/21 12:28:27;;;;;;;26.47;21.87;;;22.60;67.50;;;;;;5072248;28;20647;-59
2024/03/21 12:30:57;;;;;;;29.27;23.30;;;22.60;67.30;;;;;;5069626;28;20616;-59
2024/03/21 12:33:23;;;;;;;30.27;22.83;;;22.60;67.60;;;;;;5061282;28;20208;-59